createdAt,value
2023-05-03T00:01:41.190Z,102079.69
2023-05-03T00:04:08.478Z,102033.06
2023-05-03T00:06:35.273Z,102083.22
2023-05-03T00:09:02.467Z,102079.41
2023-05-03T00:11:29.137Z,102070.16
2023-05-03T00:13:55.668Z,102035.69
2023-05-03T00:16:22.360Z,102072.13
2023-05-03T00:18:49.394Z,102060.31
2023-05-03T00:21:17.070Z,102075.56
2023-05-03T00:23:43.602Z,102078.06
2023-05-03T00:26:10.251Z,102067.47
2023-05-03T00:28:36.861Z,102070.91
2023-05-03T00:31:08.481Z,102077.59
2023-05-03T00:33:39.033Z,102064.28
2023-05-03T00:36:13.592Z,102064.88
2023-05-03T00:38:40.714Z,102071.38
2023-05-03T00:41:11.321Z,102070.13
2023-05-03T00:43:38.147Z,102041.13
2023-05-03T00:46:16.012Z,102066.34
2023-05-03T00:48:44.600Z,102061.69
2023-05-03T00:51:13.596Z,102062.81
2023-05-03T00:53:41.072Z,102043.59
2023-05-03T00:56:07.917Z,102063.41
2023-05-03T00:58:36.361Z,102063.88
2023-05-03T01:01:03.408Z,102071.72
2023-05-03T01:03:30.268Z,102021.78
2023-05-03T01:06:08.620Z,102080.72
2023-05-03T01:08:43.697Z,102080.66
2023-05-03T01:11:55.016Z,102068.50
2023-05-03T01:14:41.787Z,102085.69
2023-05-03T01:17:12.091Z,102092.22
2023-05-03T01:19:45.011Z,102081.94
2023-05-03T01:22:14.664Z,102087.72
2023-05-03T01:24:42.510Z,102073.44
2023-05-03T01:27:09.481Z,102075.81
2023-05-03T01:29:36.265Z,102051.50
2023-05-03T01:32:04.651Z,102088.63
2023-05-03T01:34:40.654Z,102086.09
2023-05-03T01:37:10.173Z,102076.38
2023-05-03T01:40:00.568Z,102089.22
2023-05-03T01:42:27.556Z,102054.53
2023-05-03T01:44:55.147Z,102096.00
2023-05-03T01:47:22.986Z,102073.53
2023-05-03T01:49:49.573Z,102094.53
2023-05-03T01:52:16.235Z,102078.03
2023-05-03T01:54:42.784Z,102084.44
2023-05-03T01:57:09.331Z,102083.81
2023-05-03T01:59:36.446Z,102044.88
2023-05-03T02:02:02.980Z,102052.19
2023-05-03T02:04:30.200Z,102078.28
2023-05-03T02:06:56.856Z,102089.28
2023-05-03T02:09:24.673Z,102115.84
2023-05-03T02:11:51.449Z,102051.78
2023-05-03T02:14:18.147Z,101968.06
2023-05-03T02:16:44.751Z,102109.00
2023-05-03T02:19:11.349Z,102124.88
2023-05-03T02:21:38.169Z,102115.00
2023-05-03T02:24:05.160Z,102101.22
2023-05-03T02:26:31.710Z,102102.66
2023-05-03T02:28:58.290Z,102051.94
2023-05-03T02:31:25.266Z,101998.84
2023-05-03T02:33:51.986Z,102126.66
2023-05-03T02:36:18.504Z,102093.94
2023-05-03T02:38:45.087Z,101995.34
2023-05-03T02:41:11.656Z,102089.09
2023-05-03T02:43:38.294Z,102130.06
2023-05-03T02:46:05.494Z,102033.78
2023-05-03T02:48:32.300Z,102115.00
2023-05-03T02:50:58.915Z,102138.94
2023-05-03T02:53:25.436Z,101740.63
2023-05-03T02:55:51.977Z,102106.72
2023-05-03T02:58:18.607Z,102059.97
2023-05-03T03:00:45.137Z,102132.41
2023-05-03T03:03:12.058Z,102110.75
2023-05-03T03:05:38.877Z,102142.06
2023-05-03T03:08:05.725Z,102130.28
2023-05-03T03:10:32.952Z,102101.44
2023-05-03T03:12:59.865Z,102034.28
2023-05-03T03:15:26.461Z,102112.09
2023-05-03T03:17:57.605Z,102083.47
2023-05-03T03:20:24.630Z,102056.13
2023-05-03T03:22:57.900Z,102120.59
2023-05-03T03:25:24.849Z,102126.97
2023-05-03T03:27:51.768Z,102129.81
2023-05-03T03:30:18.576Z,102084.47
2023-05-03T03:32:45.192Z,102113.69
2023-05-03T03:35:11.938Z,102046.31
2023-05-03T03:37:39.198Z,102007.97
2023-05-03T03:40:07.486Z,102003.56
2023-05-03T03:42:34.121Z,102067.53
2023-05-03T03:45:00.754Z,102037.19
2023-05-03T03:47:27.374Z,102069.22
2023-05-03T03:49:53.906Z,102088.22
2023-05-03T03:52:20.523Z,102054.72
2023-05-03T03:54:47.040Z,102000.88
2023-05-03T03:57:13.666Z,102084.19
2023-05-03T03:59:41.009Z,101963.47
2023-05-03T04:02:08.837Z,102089.72
2023-05-03T04:04:36.315Z,102096.06
2023-05-03T04:07:04.369Z,102102.63
2023-05-03T04:09:31.070Z,102113.41
2023-05-03T04:11:57.919Z,102042.47
2023-05-03T04:14:24.496Z,102093.03
2023-05-03T04:16:51.499Z,102113.28
2023-05-03T04:19:18.645Z,102096.50
2023-05-03T04:21:45.674Z,102076.38
2023-05-03T04:24:15.777Z,102063.59
2023-05-03T04:26:42.722Z,102105.03
2023-05-03T04:29:11.834Z,102084.53
2023-05-03T04:31:39.749Z,102110.53
2023-05-03T04:34:06.295Z,102082.44
2023-05-03T04:36:32.999Z,102103.75
2023-05-03T04:38:59.575Z,101991.13
2023-05-03T04:41:26.227Z,101975.25
2023-05-03T04:43:53.209Z,102034.13
2023-05-03T04:46:20.393Z,102061.81
2023-05-03T04:48:46.970Z,102072.66
2023-05-03T04:51:14.569Z,102065.03
2023-05-03T04:53:41.170Z,102090.97
2023-05-03T04:56:08.018Z,102083.38
2023-05-03T04:58:34.637Z,101958.94
2023-05-03T05:01:01.242Z,102057.94
2023-05-03T05:03:31.434Z,102060.03
2023-05-03T05:05:58.174Z,102104.78
2023-05-03T05:08:24.809Z,102103.78
2023-05-03T05:10:51.493Z,102043.34
2023-05-03T05:13:18.154Z,102071.44
2023-05-03T05:15:44.674Z,102118.69
2023-05-03T05:18:11.494Z,101849.75
2023-05-03T05:20:38.196Z,102125.56
2023-05-03T05:23:04.785Z,102086.38
2023-05-03T05:25:31.438Z,102068.38
2023-05-03T05:27:58.137Z,102100.41
2023-05-03T05:30:24.924Z,102116.66
2023-05-03T05:32:51.753Z,102147.94
2023-05-03T05:35:19.191Z,102136.91
2023-05-03T05:37:45.832Z,102092.56
2023-05-03T05:40:12.655Z,102115.47
2023-05-03T05:42:39.200Z,102115.44
2023-05-03T05:45:07.968Z,102117.25
2023-05-03T05:47:34.750Z,102104.09
2023-05-03T05:50:01.591Z,102147.41
2023-05-03T05:52:28.421Z,102098.34
2023-05-03T05:54:55.351Z,102141.50
2023-05-03T05:57:21.936Z,102129.44
2023-05-03T05:59:48.747Z,102147.41
2023-05-03T06:02:23.093Z,102133.56
2023-05-03T06:04:49.812Z,102107.06
2023-05-03T06:07:17.062Z,102075.63
2023-05-03T06:09:43.952Z,102110.47
2023-05-03T06:12:11.053Z,102106.56
2023-05-03T06:14:38.665Z,102142.13
2023-05-03T06:17:07.378Z,102131.22
2023-05-03T06:19:34.055Z,102160.31
2023-05-03T06:22:00.848Z,102165.38
2023-05-03T06:24:31.187Z,102184.53
2023-05-03T06:26:58.762Z,102170.75
2023-05-03T06:29:25.722Z,102124.66
2023-05-03T06:31:53.102Z,102183.50
2023-05-03T06:34:23.020Z,102183.97
2023-05-03T06:36:50.256Z,102183.72
2023-05-03T06:39:17.380Z,102143.09
2023-05-03T06:41:43.950Z,102192.88
2023-05-03T06:44:10.627Z,102164.88
2023-05-03T06:46:37.279Z,102169.38
2023-05-03T06:49:04.059Z,102059.81
2023-05-03T06:51:32.989Z,102198.81
2023-05-03T06:54:02.083Z,102158.53
2023-05-03T06:56:28.648Z,102125.56
2023-05-03T06:58:55.623Z,102152.75
2023-05-03T07:01:23.307Z,102182.47
2023-05-03T07:03:50.176Z,102180.59
2023-05-03T07:06:16.942Z,102106.41
2023-05-03T07:08:44.537Z,102130.19
2023-05-03T07:11:11.333Z,102121.66
2023-05-03T07:13:38.098Z,102175.59
2023-05-03T07:16:05.379Z,102153.88
2023-05-03T07:18:32.020Z,102155.66
2023-05-03T07:20:58.717Z,102177.16
2023-05-03T07:23:25.441Z,102051.00
2023-05-03T07:25:53.963Z,102164.19
2023-05-03T07:28:20.556Z,102182.50
2023-05-03T07:30:47.271Z,102129.13
2023-05-03T07:33:14.004Z,102079.16
2023-05-03T07:35:40.885Z,102085.69
2023-05-03T07:38:07.437Z,102055.72
2023-05-03T07:40:34.219Z,102108.00
2023-05-03T07:43:00.930Z,102146.56
2023-05-03T07:45:27.799Z,102042.84
2023-05-03T07:47:55.687Z,102150.78
2023-05-03T07:50:22.672Z,102151.72
2023-05-03T07:52:51.831Z,102130.72
2023-05-03T07:55:20.039Z,102006.91
2023-05-03T07:57:46.800Z,102157.88
2023-05-03T08:00:15.635Z,102157.94
2023-05-03T08:02:42.829Z,102105.84
2023-05-03T08:05:13.863Z,102146.19
2023-05-03T08:07:41.846Z,102068.72
2023-05-03T08:10:11.825Z,102084.19
2023-05-03T08:12:38.644Z,102143.19
2023-05-03T08:15:07.072Z,102088.00
2023-05-03T08:17:40.669Z,102136.81
2023-05-03T08:20:08.453Z,102139.47
2023-05-03T08:22:36.731Z,102139.72
2023-05-03T08:25:04.902Z,102140.97
2023-05-03T08:27:32.297Z,102080.88
2023-05-03T08:30:00.322Z,102044.38
2023-05-03T08:32:28.156Z,102129.13
2023-05-03T08:34:55.399Z,102137.00
2023-05-03T08:37:22.169Z,102090.03
2023-05-03T08:39:49.109Z,102135.13
2023-05-03T08:42:15.898Z,102120.72
2023-05-03T08:44:48.437Z,102118.47
2023-05-03T08:47:19.373Z,102121.75
2023-05-03T08:49:47.096Z,102116.59
2023-05-03T08:52:15.991Z,102047.25
2023-05-03T08:54:45.335Z,102135.84
2023-05-03T08:57:16.618Z,102093.16
2023-05-03T08:59:48.419Z,102126.09
2023-05-03T09:02:17.348Z,102123.81
2023-05-03T09:04:46.493Z,102093.75
2023-05-03T09:07:18.267Z,102074.25
2023-05-03T09:09:47.084Z,102137.19
2023-05-03T09:12:33.487Z,102096.59
2023-05-03T09:15:01.144Z,102133.50
2023-05-03T09:17:27.867Z,102082.69
2023-05-03T09:19:56.619Z,102129.84
2023-05-03T09:22:26.856Z,102111.47
2023-05-03T09:24:55.835Z,102112.56
2023-05-03T09:27:23.812Z,102056.47
2023-05-03T09:29:50.960Z,102078.25
2023-05-03T09:32:19.270Z,102075.28
2023-05-03T09:34:46.518Z,102082.03
2023-05-03T09:37:16.730Z,102073.03
2023-05-03T09:39:45.954Z,102076.16
2023-05-03T09:42:17.201Z,102084.63
2023-05-03T09:44:51.338Z,102070.31
2023-05-03T09:47:21.687Z,102053.41
2023-05-03T09:49:48.258Z,102054.78
2023-05-03T09:52:14.960Z,102003.84
2023-05-03T09:54:42.433Z,102044.34
2023-05-03T09:57:10.038Z,102055.28
2023-05-03T09:59:39.798Z,101975.28
2023-05-03T10:02:08.262Z,102039.34
2023-05-03T10:04:48.272Z,102029.41
2023-05-03T10:07:18.772Z,102024.19
2023-05-03T10:09:47.978Z,102040.69
2023-05-03T10:12:17.733Z,102007.66
2023-05-03T10:14:46.615Z,102028.38
2023-05-03T10:17:19.367Z,102032.38
2023-05-03T10:20:16.142Z,102025.50
2023-05-03T10:23:04.911Z,102030.97
2023-05-03T10:25:32.677Z,102031.34
2023-05-03T10:28:07.451Z,102033.53
2023-05-03T10:30:44.087Z,102005.84
2023-05-03T10:33:14.244Z,102015.69
2023-05-03T10:35:52.396Z,102004.44
2023-05-03T10:38:24.508Z,101830.56
2023-05-03T10:40:51.998Z,101927.66
2023-05-03T10:43:33.685Z,102013.41
2023-05-03T10:46:05.948Z,101955.75
2023-05-03T10:48:33.844Z,101949.44
2023-05-03T10:51:38.896Z,101979.09
2023-05-03T10:54:05.497Z,101871.31
2023-05-03T10:56:32.154Z,101966.97
2023-05-03T10:58:58.985Z,102003.47
2023-05-03T11:01:27.470Z,101995.13
2023-05-03T11:04:32.480Z,101992.00
2023-05-03T11:06:59.499Z,101968.03
2023-05-03T11:09:33.992Z,101939.03
2023-05-03T11:12:05.495Z,101930.00
2023-05-03T11:14:32.082Z,101935.66
2023-05-03T11:16:59.101Z,101965.63
2023-05-03T11:19:26.203Z,101948.41
2023-05-03T11:21:53.468Z,101967.63
2023-05-03T11:24:20.498Z,101921.34
2023-05-03T11:26:48.783Z,101926.69
2023-05-03T11:29:17.154Z,101961.94
2023-05-03T11:31:44.554Z,101921.25
2023-05-03T11:34:12.061Z,101964.31
2023-05-03T11:36:40.476Z,101898.22
2023-05-03T11:39:07.095Z,101958.47
2023-05-03T11:41:33.660Z,101940.38
2023-05-03T11:44:12.064Z,101957.50
2023-05-03T11:46:42.748Z,101932.81
2023-05-03T11:49:10.017Z,101917.53
2023-05-03T11:51:37.126Z,101916.28
2023-05-03T11:54:16.889Z,101956.50
2023-05-03T11:56:54.892Z,101874.00
2023-05-03T11:59:42.782Z,101859.69
2023-05-03T12:02:12.599Z,101937.94
2023-05-03T12:04:45.593Z,101955.16
2023-05-03T12:07:14.982Z,101950.72
2023-05-03T12:09:45.342Z,101934.78
2023-05-03T12:12:23.976Z,101953.25
2023-05-03T12:14:58.040Z,101859.38
2023-05-03T12:17:39.908Z,101941.53
2023-05-03T12:22:57.473Z,101946.25
2023-05-03T12:25:28.333Z,101964.91
2023-05-03T12:30:32.143Z,101942.16
2023-05-03T12:33:02.151Z,101957.91
2023-05-03T12:35:33.498Z,101966.66
2023-05-03T12:38:03.350Z,101927.75
2023-05-03T12:40:34.232Z,101848.72
2023-05-03T12:43:01.775Z,101914.16
2023-05-03T12:45:33.751Z,101922.50
2023-05-03T12:48:01.776Z,101915.72
2023-05-03T12:50:31.301Z,101859.06
2023-05-03T12:53:01.886Z,101913.03
2023-05-03T12:55:34.246Z,101953.66
2023-05-03T13:00:36.185Z,101890.53
2023-05-03T13:05:35.923Z,101910.53
2023-05-03T13:08:09.320Z,101930.16
2023-05-03T13:10:38.885Z,101894.41
2023-05-03T13:13:06.815Z,101869.09
2023-05-03T13:15:35.004Z,101917.38
2023-05-03T13:18:03.294Z,101894.53
2023-05-03T13:20:31.296Z,101848.09
2023-05-03T13:22:58.030Z,101835.03
2023-05-03T13:25:24.658Z,101891.84
2023-05-03T13:27:53.187Z,101897.38
2023-05-03T13:30:23.254Z,101903.41
2023-05-03T13:32:52.987Z,101890.78
2023-05-03T13:35:20.718Z,101817.28
2023-05-03T13:37:47.338Z,101762.06
2023-05-03T13:40:15.201Z,101868.97
2023-05-03T13:42:42.003Z,101870.47
2023-05-03T13:45:10.107Z,101837.69
2023-05-03T13:47:59.520Z,101734.88
2023-05-03T13:50:23.940Z,101866.75
2023-05-03T13:52:50.615Z,101821.56
2023-05-03T13:55:17.279Z,101805.81
2023-05-03T13:57:44.447Z,101802.56
2023-05-03T14:00:12.462Z,101809.22
2023-05-03T14:02:39.294Z,101757.66
2023-05-03T14:05:06.916Z,101834.88
2023-05-03T14:07:34.079Z,101581.91
2023-05-03T14:10:01.928Z,101781.34
2023-05-03T14:12:28.883Z,101794.16
2023-05-03T14:14:55.935Z,101810.88
2023-05-03T14:17:22.657Z,101756.94
2023-05-03T14:19:49.674Z,101725.63
2023-05-03T14:22:16.264Z,101767.75
2023-05-03T14:24:44.283Z,101699.84
2023-05-03T14:27:11.259Z,101716.09
2023-05-03T14:29:38.062Z,101778.97
2023-05-03T14:32:05.536Z,101803.75
2023-05-03T14:34:32.317Z,101681.53
2023-05-03T14:36:58.901Z,101795.13
2023-05-03T14:39:27.011Z,101730.19
2023-05-03T14:41:55.771Z,101739.97
2023-05-03T14:44:23.150Z,101787.81
2023-05-03T14:46:49.850Z,101771.53
2023-05-03T14:49:17.695Z,101769.19
2023-05-03T14:51:44.644Z,101539.75
2023-05-03T14:54:12.470Z,101554.50
2023-05-03T14:56:41.161Z,101773.13
2023-05-03T14:59:09.236Z,101726.50
2023-05-03T15:01:37.695Z,101605.66
2023-05-03T15:04:07.565Z,101687.66
2023-05-03T15:06:38.953Z,101699.22
2023-05-03T15:09:06.125Z,101715.41
2023-05-03T15:11:33.739Z,101724.53
2023-05-03T15:14:01.123Z,101645.00
2023-05-03T15:16:29.911Z,101650.06
2023-05-03T15:18:56.526Z,101731.16
2023-05-03T15:21:24.848Z,101727.72
2023-05-03T15:23:51.920Z,101745.78
2023-05-03T15:26:18.548Z,101650.19
2023-05-03T15:28:45.654Z,101653.59
2023-05-03T15:31:15.522Z,101658.31
2023-05-03T15:33:44.482Z,101754.13
2023-05-03T15:36:12.575Z,101698.81
2023-05-03T15:38:39.888Z,101742.34
2023-05-03T15:41:07.864Z,101745.63
2023-05-03T15:43:35.029Z,101746.75
2023-05-03T15:46:02.162Z,101711.72
2023-05-03T15:48:28.876Z,101690.84
2023-05-03T15:50:55.753Z,101684.22
2023-05-03T15:53:22.723Z,101694.28
2023-05-03T15:55:49.662Z,101701.22
2023-05-03T15:58:18.156Z,101687.06
2023-05-03T16:00:44.914Z,101732.81
2023-05-03T16:03:11.651Z,101735.81
2023-05-03T16:05:38.256Z,101651.53
2023-05-03T16:08:06.718Z,101688.03
2023-05-03T16:10:33.983Z,101677.91
2023-05-03T16:13:01.481Z,101713.44
2023-05-03T16:15:28.246Z,101612.25
2023-05-03T16:17:54.946Z,101705.41
2023-05-03T16:20:21.719Z,101702.44
2023-05-03T16:22:49.303Z,101743.66
2023-05-03T16:25:17.508Z,101674.97
2023-05-03T16:27:44.478Z,101688.78
2023-05-03T16:30:11.446Z,101668.03
2023-05-03T16:32:38.273Z,101721.03
2023-05-03T16:35:05.432Z,101723.97
2023-05-03T16:37:34.001Z,101624.25
2023-05-03T16:40:01.253Z,101728.41
2023-05-03T16:42:28.094Z,101641.91
2023-05-03T16:44:54.796Z,101632.16
2023-05-03T16:47:22.126Z,101696.16
2023-05-03T16:49:48.700Z,101708.56
2023-05-03T16:52:15.406Z,101700.38
2023-05-03T16:54:43.672Z,101671.88
2023-05-03T16:57:10.304Z,101663.50
2023-05-03T16:59:36.989Z,101604.09
2023-05-03T17:02:03.982Z,101710.75
2023-05-03T17:04:30.811Z,101652.19
2023-05-03T17:06:57.748Z,101693.66
2023-05-03T17:09:25.548Z,101676.97
2023-05-03T17:11:52.568Z,101706.03
2023-05-03T17:14:19.318Z,101681.06
2023-05-03T17:16:46.890Z,101630.22
2023-05-03T17:19:13.786Z,101595.03
2023-05-03T17:21:40.454Z,101652.50
2023-05-03T17:24:07.495Z,101697.56
2023-05-03T17:26:36.899Z,101639.25
2023-05-03T17:29:03.646Z,101684.88
2023-05-03T17:31:30.594Z,101600.63
2023-05-03T17:33:57.263Z,101633.59
2023-05-03T17:36:25.185Z,101606.13
2023-05-03T17:38:55.495Z,101679.06
2023-05-03T17:41:22.150Z,101678.91
2023-05-03T17:43:49.736Z,101669.31
2023-05-03T17:46:21.260Z,101649.56
2023-05-03T17:48:48.538Z,101686.97
2023-05-03T17:51:15.410Z,101681.72
2023-05-03T17:53:42.758Z,101684.88
2023-05-03T17:56:16.586Z,101650.34
2023-05-03T17:58:44.341Z,101684.25
2023-05-03T18:01:13.112Z,101506.88
2023-05-03T18:03:44.079Z,101666.44
2023-05-03T18:06:12.553Z,101681.56
2023-05-03T18:08:39.414Z,101685.41
2023-05-03T18:11:06.154Z,101654.31
2023-05-03T18:13:36.591Z,101661.09
2023-05-03T18:16:07.918Z,101647.88
2023-05-03T18:18:34.662Z,101658.84
2023-05-03T18:21:03.452Z,101678.91
2023-05-03T18:23:31.182Z,101562.72
2023-05-03T18:25:58.004Z,101620.44
2023-05-03T18:28:27.714Z,101668.59
2023-05-03T18:30:55.898Z,101678.06
2023-05-03T18:33:22.979Z,101651.69
2023-05-03T18:35:50.730Z,101691.47
2023-05-03T18:38:19.211Z,101674.06
2023-05-03T18:40:46.959Z,101590.75
2023-05-03T18:43:14.016Z,101621.22
2023-05-03T18:45:41.117Z,101651.06
2023-05-03T18:48:07.936Z,101652.91
2023-05-03T18:50:36.016Z,101675.22
2023-05-03T18:53:03.868Z,101615.06
2023-05-03T18:55:30.618Z,101675.09
2023-05-03T18:57:58.898Z,101644.84
2023-05-03T19:00:25.797Z,101587.56
2023-05-03T19:02:53.632Z,101667.19
2023-05-03T19:05:20.290Z,101547.88
2023-05-03T19:07:47.960Z,101672.22
2023-05-03T19:10:15.679Z,101670.53
2023-05-03T19:12:44.430Z,101615.66
2023-05-03T19:15:12.125Z,101669.59
2023-05-03T19:17:41.871Z,101648.53
2023-05-03T19:20:10.506Z,101646.84
2023-05-03T19:22:37.384Z,101684.34
2023-05-03T19:25:06.123Z,101633.09
2023-05-03T19:27:33.210Z,101492.34
2023-05-03T19:29:59.791Z,101668.88
2023-05-03T19:32:26.685Z,101638.28
2023-05-03T19:34:53.321Z,101686.09
2023-05-03T19:37:19.939Z,101673.81
2023-05-03T19:39:46.580Z,101686.78
2023-05-03T19:42:13.150Z,101678.56
2023-05-03T19:44:40.215Z,101650.16
2023-05-03T19:47:06.888Z,101559.00
2023-05-03T19:49:33.547Z,101662.03
2023-05-03T19:52:01.958Z,101664.66
2023-05-03T19:54:29.659Z,101654.50
2023-05-03T19:56:56.577Z,101637.63
2023-05-03T19:59:23.301Z,101674.09
2023-05-03T20:01:50.172Z,101679.56
2023-05-03T20:04:17.052Z,101660.28
2023-05-03T20:06:43.898Z,101690.94
2023-05-03T20:09:10.904Z,101655.78
2023-05-03T20:11:37.562Z,101649.06
2023-05-03T20:14:04.502Z,101612.66
2023-05-03T20:16:33.378Z,101659.50
2023-05-03T20:19:01.179Z,101623.88
2023-05-03T20:21:28.406Z,101647.50
2023-05-03T20:23:56.875Z,101652.66
2023-05-03T20:26:23.462Z,101686.28
2023-05-03T20:28:51.461Z,101654.31
2023-05-03T20:31:18.339Z,101613.91
2023-05-03T20:33:45.066Z,101684.81
2023-05-03T20:36:13.566Z,101641.94
2023-05-03T20:38:40.497Z,101672.06
2023-05-03T20:41:07.149Z,101686.81
2023-05-03T20:43:33.745Z,101686.50
2023-05-03T20:46:00.408Z,101641.66
2023-05-03T20:48:28.596Z,101644.91
2023-05-03T20:50:55.419Z,101664.38
2023-05-03T20:53:22.048Z,101686.09
2023-05-03T20:55:54.956Z,101689.38
2023-05-03T20:58:21.629Z,101643.69
2023-05-03T21:00:50.731Z,101646.25
2023-05-03T21:03:17.485Z,101613.50
2023-05-03T21:05:44.337Z,101690.13
2023-05-03T21:08:11.047Z,101615.78
2023-05-03T21:10:37.863Z,101619.34
2023-05-03T21:13:04.479Z,101647.50
2023-05-03T21:15:31.163Z,101632.44
2023-05-03T21:17:57.954Z,101653.06
2023-05-03T21:20:24.717Z,101646.41
2023-05-03T21:22:52.423Z,101691.19
2023-05-03T21:25:19.002Z,101582.28
2023-05-03T21:27:45.806Z,101639.22
2023-05-03T21:30:13.758Z,101558.50
2023-05-03T21:32:40.438Z,101643.97
2023-05-03T21:35:09.164Z,101635.34
2023-05-03T21:37:36.248Z,101666.31
2023-05-03T21:40:03.304Z,101691.44
2023-05-03T21:42:30.319Z,101678.50
2023-05-03T21:44:56.993Z,101680.75
2023-05-03T21:47:25.640Z,101658.41
2023-05-03T21:49:52.548Z,101641.44
2023-05-03T21:52:19.790Z,101662.06
2023-05-03T21:54:49.466Z,101655.25
2023-05-03T21:57:16.301Z,101639.47
2023-05-03T21:59:42.963Z,101623.56
2023-05-03T22:02:09.657Z,101613.25
2023-05-03T22:04:36.291Z,101641.91
2023-05-03T22:07:03.943Z,101656.00
2023-05-03T22:09:30.560Z,101666.91
2023-05-03T22:11:57.150Z,101644.53
2023-05-03T22:14:24.020Z,101637.00
2023-05-03T22:16:50.753Z,101577.94
2023-05-03T22:19:17.698Z,101634.88
2023-05-03T22:21:44.310Z,101557.53
2023-05-03T22:24:11.457Z,101617.78
2023-05-03T22:26:38.103Z,101640.38
2023-05-03T22:29:05.177Z,101565.41
2023-05-03T22:31:32.553Z,101651.16
2023-05-03T22:33:59.240Z,101661.31
2023-05-03T22:36:26.131Z,101622.59
2023-05-03T22:39:00.637Z,101652.22
2023-05-03T22:41:28.107Z,101630.88
2023-05-03T22:43:54.791Z,101653.03
2023-05-03T22:46:21.561Z,101608.81
2023-05-03T22:48:48.153Z,101606.06
2023-05-03T22:51:15.033Z,101630.22
2023-05-03T22:53:41.582Z,101559.09
2023-05-03T22:56:08.257Z,101523.47
2023-05-03T22:58:35.448Z,101520.94
2023-05-03T23:01:02.008Z,101624.63
2023-05-03T23:03:28.746Z,101615.47
2023-05-03T23:05:55.821Z,101637.78
2023-05-03T23:08:23.370Z,101639.41
2023-05-03T23:10:50.596Z,101644.78
2023-05-03T23:13:17.326Z,101639.56
2023-05-03T23:15:44.172Z,101598.78
2023-05-03T23:18:10.726Z,101632.03
2023-05-03T23:20:37.684Z,101537.47
2023-05-03T23:23:04.508Z,101622.44
2023-05-03T23:25:31.394Z,101618.66
2023-05-03T23:27:58.159Z,101569.13
2023-05-03T23:30:25.871Z,101620.06
2023-05-03T23:32:53.122Z,101558.63
2023-05-03T23:35:21.077Z,101599.53
2023-05-03T23:37:47.875Z,101612.03
2023-05-03T23:40:14.464Z,101632.09
2023-05-03T23:42:41.463Z,101512.63
2023-05-03T23:45:09.608Z,101578.47
2023-05-03T23:47:36.954Z,101565.78
2023-05-03T23:50:04.402Z,101575.59
2023-05-03T23:52:31.624Z,101519.41
2023-05-03T23:54:58.503Z,101599.16
2023-05-03T23:57:25.848Z,101506.69
2023-05-03T23:59:52.674Z,101599.00
